createdAt,value
2023-06-10T00:01:11.993Z,40.07
2023-06-10T00:03:39.990Z,40.04
2023-06-10T00:06:08.680Z,40.13
2023-06-10T00:08:38.638Z,40.29
2023-06-10T00:11:07.765Z,39.99
2023-06-10T00:13:35.625Z,40.32
2023-06-10T00:16:03.423Z,40.33
2023-06-10T00:18:32.313Z,40.42
2023-06-10T00:21:05.331Z,40.32
2023-06-10T00:23:36.720Z,40.38
2023-06-10T00:26:04.500Z,40.34
2023-06-10T00:28:33.588Z,40.43
2023-06-10T00:31:01.336Z,40.46
2023-06-10T00:33:29.094Z,40.47
2023-06-10T00:35:56.914Z,40.56
2023-06-10T00:38:24.640Z,40.37
2023-06-10T00:40:52.514Z,40.44
2023-06-10T00:43:20.257Z,40.44
2023-06-10T00:45:49.481Z,40.29
2023-06-10T00:48:17.306Z,40.73
2023-06-10T00:50:45.151Z,40.49
2023-06-10T00:53:13.306Z,40.39
2023-06-10T00:55:42.245Z,40.46
2023-06-10T00:58:10.507Z,40.53
2023-06-10T01:00:38.300Z,40.55
2023-06-10T01:03:09.084Z,40.58
2023-06-10T01:05:37.810Z,40.71
2023-06-10T01:08:11.964Z,40.68
2023-06-10T01:10:45.740Z,40.44
2023-06-10T01:13:14.750Z,40.60
2023-06-10T01:15:42.718Z,40.54
2023-06-10T01:18:16.131Z,40.49
2023-06-10T01:20:47.527Z,40.56
2023-06-10T01:23:17.646Z,41.01
2023-06-10T01:25:51.836Z,40.55
2023-06-10T01:28:24.099Z,40.63
2023-06-10T01:31:09.398Z,40.85
2023-06-10T01:33:41.316Z,40.70
2023-06-10T01:36:09.756Z,40.69
2023-06-10T01:38:42.674Z,40.63
2023-06-10T01:41:11.620Z,40.82
2023-06-10T01:43:40.658Z,40.90
2023-06-10T01:46:08.501Z,40.66
2023-06-10T01:48:36.281Z,40.96
2023-06-10T01:51:04.315Z,40.59
2023-06-10T01:53:32.105Z,40.84
2023-06-10T01:56:01.246Z,40.98
2023-06-10T01:58:28.992Z,41.04
2023-06-10T02:00:56.794Z,41.18
2023-06-10T02:03:24.773Z,41.07
2023-06-10T02:05:52.693Z,40.86
2023-06-10T02:08:20.426Z,41.05
2023-06-10T02:10:48.339Z,40.90
2023-06-10T02:13:17.499Z,40.92
2023-06-10T02:15:45.373Z,40.86
2023-06-10T02:18:14.112Z,41.06
2023-06-10T02:20:41.852Z,41.14
2023-06-10T02:23:09.619Z,41.11
2023-06-10T02:25:37.359Z,41.24
2023-06-10T02:28:05.546Z,41.25
2023-06-10T02:30:34.674Z,41.06
2023-06-10T02:33:02.722Z,41.15
2023-06-10T02:35:30.670Z,41.34
2023-06-10T02:37:58.394Z,41.10
2023-06-10T02:40:26.108Z,41.32
2023-06-10T02:42:53.846Z,41.08
2023-06-10T02:45:21.568Z,41.48
2023-06-10T02:47:50.831Z,41.36
2023-06-10T02:50:18.744Z,41.04
2023-06-10T02:52:46.820Z,41.41
2023-06-10T02:55:14.693Z,41.60
2023-06-10T02:57:42.422Z,41.54
2023-06-10T03:00:12.266Z,41.10
2023-06-10T03:02:40.187Z,41.16
2023-06-10T03:05:13.202Z,41.41
2023-06-10T03:07:41.773Z,41.60
2023-06-10T03:10:10.292Z,41.48
2023-06-10T03:12:38.076Z,41.47
2023-06-10T03:15:07.086Z,41.75
2023-06-10T03:17:35.414Z,41.71
2023-06-10T03:20:03.723Z,41.51
2023-06-10T03:22:32.976Z,41.53
2023-06-10T03:25:00.826Z,41.38
2023-06-10T03:27:30.465Z,41.53
2023-06-10T03:29:58.313Z,41.64
2023-06-10T03:32:26.780Z,41.74
2023-06-10T03:34:57.922Z,41.66
2023-06-10T03:37:25.988Z,41.90
2023-06-10T03:39:55.089Z,41.52
2023-06-10T03:42:22.831Z,41.84
2023-06-10T03:44:50.606Z,41.93
2023-06-10T03:47:18.505Z,41.73
2023-06-10T03:49:46.317Z,42.09
2023-06-10T03:52:14.169Z,42.15
2023-06-10T03:54:41.907Z,42.19
2023-06-10T03:57:11.068Z,42.16
2023-06-10T03:59:38.796Z,41.84
2023-06-10T04:02:07.985Z,41.84
2023-06-10T04:04:35.744Z,42.37
2023-06-10T04:07:04.380Z,42.46
2023-06-10T04:09:32.124Z,42.11
2023-06-10T04:11:59.852Z,42.38
2023-06-10T04:14:29.048Z,42.21
2023-06-10T04:16:56.917Z,42.28
2023-06-10T04:19:24.760Z,42.37
2023-06-10T04:21:52.593Z,42.76
2023-06-10T04:24:20.324Z,42.77
2023-06-10T04:26:48.136Z,42.58
2023-06-10T04:29:15.941Z,42.53
2023-06-10T04:31:47.346Z,42.88
2023-06-10T04:34:15.548Z,42.89
2023-06-10T04:36:43.683Z,42.82
2023-06-10T04:39:11.470Z,42.89
2023-06-10T04:41:39.303Z,42.52
2023-06-10T04:44:07.067Z,42.95
2023-06-10T04:46:34.850Z,42.66
2023-06-10T04:49:04.405Z,42.56
2023-06-10T04:51:32.816Z,42.52
2023-06-10T04:54:03.698Z,42.73
2023-06-10T04:56:31.887Z,42.99
2023-06-10T04:58:59.758Z,43.03
2023-06-10T05:01:28.798Z,42.99
2023-06-10T05:03:56.645Z,43.08
2023-06-10T05:06:25.775Z,42.94
2023-06-10T05:08:53.541Z,42.91
2023-06-10T05:11:21.290Z,43.14
2023-06-10T05:13:49.948Z,42.92
2023-06-10T05:16:17.885Z,42.77
2023-06-10T05:18:45.701Z,42.84
2023-06-10T05:21:13.596Z,43.05
2023-06-10T05:23:42.815Z,42.84
2023-06-10T05:26:10.793Z,42.78
2023-06-10T05:28:38.558Z,42.83
2023-06-10T05:31:06.486Z,43.08
2023-06-10T05:33:34.213Z,43.15
2023-06-10T05:36:02.255Z,43.21
2023-06-10T05:38:30.068Z,43.41
2023-06-10T05:41:00.013Z,43.37
2023-06-10T05:43:27.773Z,43.03
2023-06-10T05:45:55.665Z,43.47
2023-06-10T05:48:23.464Z,43.03
2023-06-10T05:50:51.206Z,43.23
2023-06-10T05:53:19.011Z,43.14
2023-06-10T05:55:47.894Z,43.61
2023-06-10T05:58:17.084Z,43.68
2023-06-10T06:00:44.905Z,43.81
2023-06-10T06:03:12.806Z,43.36
2023-06-10T06:05:40.712Z,43.79
2023-06-10T06:08:08.677Z,43.46
2023-06-10T06:10:36.690Z,43.58
2023-06-10T06:13:04.751Z,43.65
2023-06-10T06:15:33.847Z,43.64
2023-06-10T06:18:01.662Z,43.57
2023-06-10T06:20:29.625Z,43.92
2023-06-10T06:22:57.405Z,43.74
2023-06-10T06:25:25.330Z,43.89
2023-06-10T06:27:53.043Z,43.71
2023-06-10T06:30:21.044Z,44.00
2023-06-10T06:32:50.190Z,43.66
2023-06-10T06:35:18.003Z,43.84
2023-06-10T06:37:45.876Z,43.63
2023-06-10T06:40:14.610Z,43.73
2023-06-10T06:42:43.515Z,43.69
2023-06-10T06:45:12.849Z,43.41
2023-06-10T06:47:40.672Z,43.61
2023-06-10T06:50:11.646Z,43.34
2023-06-10T06:52:39.412Z,43.52
2023-06-10T06:55:08.126Z,43.45
2023-06-10T06:57:36.257Z,43.52
2023-06-10T07:00:04.639Z,44.07
2023-06-10T07:02:33.214Z,43.53
2023-06-10T07:05:01.302Z,43.67
2023-06-10T07:07:30.448Z,44.34
2023-06-10T07:09:58.178Z,44.54
2023-06-10T07:12:26.142Z,44.88
2023-06-10T07:14:53.973Z,45.33
2023-06-10T07:17:21.942Z,45.16
2023-06-10T07:19:49.681Z,44.91
2023-06-10T07:22:17.412Z,44.88
2023-06-10T07:24:46.530Z,44.76
2023-06-10T07:27:14.388Z,44.69
2023-06-10T07:29:42.135Z,44.65
2023-06-10T07:32:10.518Z,44.33
2023-06-10T07:34:38.275Z,44.30
2023-06-10T07:37:06.604Z,44.57
2023-06-10T07:39:34.365Z,44.22
2023-06-10T07:42:03.716Z,44.44
2023-06-10T07:44:31.440Z,44.54
2023-06-10T07:46:59.440Z,44.43
2023-06-10T07:49:27.273Z,44.43
2023-06-10T07:51:56.541Z,44.53
2023-06-10T07:54:24.298Z,44.07
2023-06-10T07:56:53.914Z,44.54
2023-06-10T07:59:22.997Z,44.52
2023-06-10T08:01:50.716Z,44.25
2023-06-10T08:04:18.576Z,44.38
2023-06-10T08:06:46.389Z,44.23
2023-06-10T08:09:14.132Z,44.32
2023-06-10T08:11:42.082Z,44.37
2023-06-10T08:14:09.842Z,44.44
2023-06-10T08:16:38.955Z,44.60
2023-06-10T08:19:06.771Z,44.32
2023-06-10T08:21:34.617Z,44.37
2023-06-10T08:24:02.470Z,44.61
2023-06-10T08:26:30.223Z,44.17
2023-06-10T08:28:57.996Z,44.21
2023-06-10T08:31:25.925Z,44.39
2023-06-10T08:33:55.035Z,44.73
2023-06-10T08:36:22.788Z,44.36
2023-06-10T08:38:50.606Z,44.58
2023-06-10T08:41:21.699Z,44.43
2023-06-10T08:44:01.565Z,44.58
2023-06-10T08:46:33.625Z,43.48
2023-06-10T08:49:05.913Z,44.02
2023-06-10T08:51:36.684Z,44.19
2023-06-10T08:54:11.889Z,43.96
2023-06-10T08:56:41.924Z,43.62
2023-06-10T08:59:10.313Z,43.82
2023-06-10T09:01:39.059Z,43.67
2023-06-10T09:04:08.815Z,43.82
2023-06-10T09:06:37.221Z,44.10
2023-06-10T09:09:05.138Z,44.20
2023-06-10T09:11:33.911Z,44.17
2023-06-10T09:14:01.783Z,44.18
2023-06-10T09:16:30.356Z,44.05
2023-06-10T09:18:58.305Z,44.47
2023-06-10T09:21:27.836Z,44.04
2023-06-10T09:23:56.022Z,44.38
2023-06-10T09:26:30.451Z,44.33
2023-06-10T09:29:05.279Z,44.44
2023-06-10T09:31:33.826Z,43.98
2023-06-10T09:34:09.123Z,43.90
2023-06-10T09:36:38.815Z,43.93
2023-06-10T09:39:06.930Z,43.90
2023-06-10T09:41:35.900Z,44.06
2023-06-10T09:44:04.192Z,43.81
2023-06-10T09:46:34.591Z,43.63
2023-06-10T09:49:02.441Z,43.64
2023-06-10T09:51:30.330Z,43.53
2023-06-10T09:54:00.121Z,43.89
2023-06-10T09:56:35.664Z,43.40
2023-06-10T09:59:03.631Z,43.43
2023-06-10T10:01:32.925Z,43.32
2023-06-10T10:04:01.167Z,43.60
2023-06-10T10:06:30.167Z,43.34
2023-06-10T10:08:59.576Z,43.38
2023-06-10T10:11:28.210Z,43.40
2023-06-10T10:13:56.119Z,43.40
2023-06-10T10:16:29.537Z,43.26
2023-06-10T10:19:01.078Z,43.22
2023-06-10T10:21:32.610Z,43.03
2023-06-10T10:24:08.863Z,43.31
2023-06-10T10:26:37.167Z,43.05
2023-06-10T10:29:13.490Z,42.79
2023-06-10T10:31:45.161Z,43.48
2023-06-10T10:34:17.393Z,43.27
2023-06-10T10:36:46.153Z,43.13
2023-06-10T10:39:15.350Z,43.21
2023-06-10T10:41:44.230Z,43.08
2023-06-10T10:44:13.052Z,43.20
2023-06-10T10:46:45.527Z,43.04
2023-06-10T10:49:15.981Z,42.52
2023-06-10T10:51:58.716Z,42.55
2023-06-10T10:54:34.783Z,42.44
2023-06-10T10:57:19.715Z,42.56
2023-06-10T10:59:56.510Z,42.33
2023-06-10T11:02:44.464Z,41.83
2023-06-10T11:05:13.949Z,42.13
2023-06-10T11:07:42.140Z,42.38
2023-06-10T11:10:12.787Z,42.16
2023-06-10T11:12:50.274Z,42.03
2023-06-10T11:15:21.750Z,40.12
2023-06-10T11:18:12.363Z,39.35
2023-06-10T11:21:05.867Z,37.75
2023-06-10T11:23:41.184Z,37.35
2023-06-10T11:26:35.438Z,37.76
2023-06-10T11:29:10.174Z,38.22
2023-06-10T11:31:43.688Z,39.12
2023-06-10T11:34:12.175Z,39.15
2023-06-10T11:36:46.340Z,39.07
2023-06-10T11:39:14.505Z,39.77
2023-06-10T11:41:43.632Z,38.86
2023-06-10T11:44:12.882Z,39.41
2023-06-10T11:46:43.843Z,39.44
2023-06-10T11:49:11.901Z,39.37
2023-06-10T11:51:41.612Z,39.50
2023-06-10T11:54:11.319Z,40.43
2023-06-10T11:56:39.081Z,40.13
2023-06-10T11:59:09.125Z,39.35
2023-06-10T12:01:40.762Z,39.38
2023-06-10T12:04:12.257Z,39.59
2023-06-10T12:06:41.478Z,39.81
2023-06-10T12:09:22.837Z,39.63
2023-06-10T12:11:54.852Z,40.29
2023-06-10T12:14:57.037Z,39.63
2023-06-10T12:17:26.395Z,39.91
2023-06-10T12:19:54.355Z,38.80
2023-06-10T12:22:24.403Z,36.87
2023-06-10T12:25:03.684Z,38.21
2023-06-10T12:27:32.666Z,38.24
2023-06-10T12:30:05.665Z,37.91
2023-06-10T12:32:41.965Z,38.76
2023-06-10T12:35:11.467Z,39.34
2023-06-10T12:37:42.618Z,38.78
2023-06-10T12:40:12.275Z,39.24
2023-06-10T12:42:40.624Z,40.42
2023-06-10T12:45:11.855Z,40.94
2023-06-10T12:47:40.658Z,39.00
2023-06-10T12:50:10.165Z,37.60
2023-06-10T12:52:38.182Z,37.16
2023-06-10T12:55:07.084Z,36.02
2023-06-10T12:57:35.025Z,38.15
2023-06-10T13:00:05.789Z,37.79
2023-06-10T13:02:35.741Z,37.98
2023-06-10T13:05:04.118Z,38.48
2023-06-10T13:07:32.069Z,39.14
2023-06-10T13:09:59.868Z,39.14
2023-06-10T13:12:42.444Z,37.49
2023-06-10T13:15:15.969Z,38.69
2023-06-10T13:17:46.847Z,39.59
2023-06-10T13:20:15.080Z,39.51
2023-06-10T13:22:42.935Z,39.04
2023-06-10T13:25:12.241Z,38.50
2023-06-10T13:27:40.886Z,39.53
2023-06-10T13:30:10.502Z,38.92
2023-06-10T13:32:38.418Z,39.17
2023-06-10T13:35:09.303Z,38.56
2023-06-10T13:37:38.061Z,37.94
2023-06-10T13:40:07.401Z,36.44
2023-06-10T13:42:36.923Z,35.74
2023-06-10T13:45:05.226Z,35.52
2023-06-10T13:47:33.006Z,35.83
2023-06-10T13:50:00.823Z,37.17
2023-06-10T13:52:29.926Z,35.85
2023-06-10T13:54:57.694Z,35.22
2023-06-10T13:57:25.640Z,36.30
2023-06-10T13:59:53.378Z,36.33
2023-06-10T14:02:21.328Z,36.46
2023-06-10T14:04:49.237Z,35.08
2023-06-10T14:07:17.653Z,35.61
2023-06-10T14:09:46.818Z,33.57
2023-06-10T14:12:14.572Z,34.75
2023-06-10T14:14:42.624Z,35.55
2023-06-10T14:17:10.436Z,36.89
2023-06-10T14:19:38.262Z,36.77
2023-06-10T14:22:08.082Z,37.77
2023-06-10T14:24:36.454Z,37.56
2023-06-10T14:27:06.049Z,35.61
2023-06-10T14:29:34.741Z,33.89
2023-06-10T14:32:03.890Z,33.42
2023-06-10T14:34:34.837Z,34.15
2023-06-10T14:37:04.421Z,33.24
2023-06-10T14:39:32.252Z,33.66
2023-06-10T14:42:00.052Z,34.16
2023-06-10T14:44:29.200Z,34.85
2023-06-10T14:46:56.908Z,33.64
2023-06-10T14:49:24.809Z,33.83
2023-06-10T14:51:52.564Z,33.27
2023-06-10T14:54:20.466Z,32.00
2023-06-10T14:56:48.231Z,32.41
2023-06-10T14:59:16.032Z,32.19
2023-06-10T15:01:45.220Z,32.31
2023-06-10T15:04:13.128Z,33.06
2023-06-10T15:06:40.970Z,34.45
2023-06-10T15:09:09.002Z,35.66
2023-06-10T15:11:37.447Z,36.78
2023-06-10T15:14:05.392Z,36.15
2023-06-10T15:16:33.252Z,36.05
2023-06-10T15:19:02.371Z,35.24
2023-06-10T15:21:30.078Z,35.18
2023-06-10T15:23:57.812Z,34.75
2023-06-10T15:26:25.541Z,34.34
2023-06-10T15:28:53.319Z,34.65
2023-06-10T15:31:21.328Z,34.25
2023-06-10T15:33:49.267Z,34.81
2023-06-10T15:36:18.382Z,34.99
2023-06-10T15:38:47.037Z,33.54
2023-06-10T15:41:14.797Z,33.73
2023-06-10T15:43:42.941Z,34.29
2023-06-10T15:46:10.774Z,34.08
2023-06-10T15:48:38.579Z,34.76
2023-06-10T15:51:06.495Z,34.65
2023-06-10T15:53:35.612Z,34.34
2023-06-10T15:56:04.033Z,34.16
2023-06-10T15:58:31.895Z,34.56
2023-06-10T16:00:59.686Z,34.14
2023-06-10T16:03:27.562Z,34.32
2023-06-10T16:05:55.475Z,34.74
2023-06-10T16:08:23.251Z,34.43
2023-06-10T16:10:52.504Z,34.71
2023-06-10T16:13:20.280Z,34.64
2023-06-10T16:15:48.096Z,34.50
2023-06-10T16:18:16.029Z,34.98
2023-06-10T16:20:44.178Z,34.82
2023-06-10T16:23:12.041Z,35.27
2023-06-10T16:25:40.448Z,35.59
2023-06-10T16:28:09.937Z,34.74
2023-06-10T16:30:37.845Z,35.38
2023-06-10T16:33:05.906Z,35.43
2023-06-10T16:35:33.816Z,34.79
2023-06-10T16:38:03.683Z,34.49
2023-06-10T16:40:31.964Z,34.93
2023-06-10T16:42:59.957Z,34.96
2023-06-10T16:45:29.120Z,34.54
2023-06-10T16:47:57.193Z,34.65
2023-06-10T16:50:25.177Z,34.95
2023-06-10T16:52:52.981Z,34.62
2023-06-10T16:55:20.717Z,34.61
2023-06-10T16:57:48.480Z,34.38
2023-06-10T17:00:17.578Z,34.48
2023-06-10T17:02:46.804Z,33.56
2023-06-10T17:05:14.724Z,34.23
2023-06-10T17:07:42.730Z,34.75
2023-06-10T17:10:11.443Z,34.12
2023-06-10T17:12:39.184Z,34.75
2023-06-10T17:15:08.735Z,34.56
2023-06-10T17:17:37.007Z,34.61
2023-06-10T17:20:08.206Z,34.99
2023-06-10T17:22:36.154Z,34.98
2023-06-10T17:25:03.900Z,34.65
2023-06-10T17:27:31.674Z,33.66
2023-06-10T17:29:59.574Z,34.63
2023-06-10T17:32:27.394Z,34.16
2023-06-10T17:34:55.196Z,33.83
2023-06-10T17:37:24.500Z,34.73
2023-06-10T17:39:52.245Z,34.15
2023-06-10T17:42:20.069Z,34.02
2023-06-10T17:44:47.803Z,33.96
2023-06-10T17:47:15.669Z,34.25
2023-06-10T17:49:43.388Z,36.90
2023-06-10T17:52:11.172Z,36.60
2023-06-10T17:54:40.395Z,35.68
2023-06-10T17:57:08.266Z,34.15
2023-06-10T17:59:36.003Z,34.35
2023-06-10T18:02:04.344Z,33.83
2023-06-10T18:04:32.191Z,34.13
2023-06-10T18:06:59.993Z,34.08
2023-06-10T18:09:27.783Z,34.10
2023-06-10T18:11:56.885Z,34.15
2023-06-10T18:14:24.800Z,33.85
2023-06-10T18:16:52.635Z,33.82
2023-06-10T18:19:20.460Z,34.02
2023-06-10T18:21:48.191Z,34.03
2023-06-10T18:24:16.154Z,33.70
2023-06-10T18:26:43.917Z,33.88
2023-06-10T18:29:13.010Z,34.01
2023-06-10T18:31:40.871Z,33.84
2023-06-10T18:34:08.759Z,33.91
2023-06-10T18:36:37.256Z,33.78
2023-06-10T18:39:05.308Z,34.05
2023-06-10T18:41:33.117Z,33.77
2023-06-10T18:44:01.655Z,34.35
2023-06-10T18:46:30.869Z,34.12
2023-06-10T18:48:58.697Z,33.76
2023-06-10T18:51:26.938Z,34.32
2023-06-10T18:53:54.745Z,33.86
2023-06-10T18:56:22.517Z,34.38
2023-06-10T18:58:50.961Z,33.92
2023-06-10T19:01:19.361Z,34.40
2023-06-10T19:03:50.525Z,33.96
2023-06-10T19:06:18.441Z,34.30
2023-06-10T19:08:46.233Z,34.35
2023-06-10T19:11:14.257Z,34.02
2023-06-10T19:13:42.098Z,34.18
2023-06-10T19:16:09.938Z,34.54
2023-06-10T19:18:37.743Z,34.49
2023-06-10T19:21:08.325Z,34.07
2023-06-10T19:23:37.273Z,34.25
2023-06-10T19:26:05.498Z,34.60
2023-06-10T19:28:33.304Z,34.19
2023-06-10T19:31:01.069Z,34.33
2023-06-10T19:33:28.835Z,34.78
2023-06-10T19:35:56.667Z,34.44
2023-06-10T19:38:25.875Z,34.34
2023-06-10T19:40:53.646Z,34.45
2023-06-10T19:43:21.406Z,34.40
2023-06-10T19:45:49.191Z,34.42
2023-06-10T19:48:17.005Z,34.67
2023-06-10T19:50:44.841Z,34.88
2023-06-10T19:53:12.686Z,34.49
2023-06-10T19:55:41.834Z,35.10
2023-06-10T19:58:09.621Z,35.12
2023-06-10T20:00:37.387Z,34.95
2023-06-10T20:03:05.358Z,34.68
2023-06-10T20:05:34.026Z,34.79
2023-06-10T20:08:01.822Z,34.60
2023-06-10T20:10:29.585Z,34.99
2023-06-10T20:12:58.668Z,34.75
2023-06-10T20:15:26.462Z,34.78
2023-06-10T20:17:54.234Z,34.64
2023-06-10T20:20:22.179Z,35.06
2023-06-10T20:22:49.936Z,34.58
2023-06-10T20:25:18.076Z,34.69
2023-06-10T20:27:45.872Z,35.25
2023-06-10T20:30:15.979Z,34.72
2023-06-10T20:32:43.851Z,35.03
2023-06-10T20:35:12.012Z,35.35
2023-06-10T20:37:40.091Z,35.27
2023-06-10T20:40:08.996Z,35.37
2023-06-10T20:42:36.758Z,35.25
2023-06-10T20:45:04.983Z,35.02
2023-06-10T20:47:34.180Z,34.81
2023-06-10T20:50:01.981Z,35.29
2023-06-10T20:52:29.782Z,35.30
2023-06-10T20:54:57.512Z,35.31
2023-06-10T20:57:25.932Z,35.18
2023-06-10T20:59:53.712Z,35.09
2023-06-10T21:02:21.463Z,35.08
2023-06-10T21:04:50.638Z,35.35
2023-06-10T21:07:18.380Z,35.41
2023-06-10T21:09:46.163Z,35.23
2023-06-10T21:12:14.223Z,35.57
2023-06-10T21:14:41.946Z,35.60
2023-06-10T21:17:09.733Z,35.20
2023-06-10T21:19:37.503Z,35.41
2023-06-10T21:22:06.729Z,35.26
2023-06-10T21:24:34.574Z,35.56
2023-06-10T21:27:02.335Z,35.21
2023-06-10T21:29:30.650Z,35.35
2023-06-10T21:31:58.874Z,35.25
2023-06-10T21:34:26.676Z,35.75
2023-06-10T21:36:54.485Z,35.28
2023-06-10T21:39:23.583Z,35.58
2023-06-10T21:41:51.303Z,35.77
2023-06-10T21:44:19.077Z,35.82
2023-06-10T21:46:47.037Z,36.04
2023-06-10T21:49:14.925Z,35.54
2023-06-10T21:51:44.182Z,35.81
2023-06-10T21:54:11.957Z,35.96
2023-06-10T21:56:41.196Z,36.06
2023-06-10T21:59:09.677Z,36.23
2023-06-10T22:01:37.537Z,35.72
2023-06-10T22:04:05.853Z,35.94
2023-06-10T22:06:34.764Z,36.28
2023-06-10T22:09:02.678Z,36.18
2023-06-10T22:11:30.499Z,36.42
2023-06-10T22:13:59.734Z,36.12
2023-06-10T22:16:27.597Z,36.36
2023-06-10T22:18:55.487Z,36.58
2023-06-10T22:21:23.311Z,36.09
2023-06-10T22:23:51.481Z,36.35
2023-06-10T22:26:19.265Z,36.40
2023-06-10T22:28:47.031Z,36.19
2023-06-10T22:31:16.194Z,36.40
2023-06-10T22:33:43.991Z,36.43
2023-06-10T22:36:11.795Z,36.46
2023-06-10T22:38:39.533Z,36.73
2023-06-10T22:41:07.356Z,36.27
2023-06-10T22:43:35.385Z,36.53
2023-06-10T22:46:03.180Z,36.57
2023-06-10T22:48:33.846Z,36.51
2023-06-10T22:51:02.256Z,36.56
2023-06-10T22:53:29.994Z,36.57
2023-06-10T22:55:58.034Z,36.67
2023-06-10T22:58:25.816Z,36.81
2023-06-10T23:00:53.574Z,36.96
2023-06-10T23:03:21.353Z,36.72
2023-06-10T23:05:50.544Z,36.76
2023-06-10T23:08:18.291Z,36.78
2023-06-10T23:10:46.275Z,36.97
2023-06-10T23:13:14.096Z,37.04
2023-06-10T23:15:41.823Z,37.05
2023-06-10T23:18:10.183Z,36.90
2023-06-10T23:20:37.989Z,36.91
2023-06-10T23:23:08.187Z,37.04
2023-06-10T23:25:36.521Z,36.97
2023-06-10T23:28:04.514Z,37.02
2023-06-10T23:30:32.254Z,37.01
2023-06-10T23:33:00.332Z,37.21
2023-06-10T23:35:28.194Z,37.22
2023-06-10T23:37:55.928Z,37.29
2023-06-10T23:40:25.004Z,37.22
2023-06-10T23:42:52.730Z,37.43
2023-06-10T23:45:20.495Z,37.49
2023-06-10T23:47:48.305Z,37.46
2023-06-10T23:50:16.196Z,37.62
2023-06-10T23:52:43.978Z,37.58
2023-06-10T23:55:12.320Z,37.65
2023-06-10T23:57:41.745Z,37.59
